Time;durP1;ratioP1;P1;durP2;ratioP2;P2;SDS_P1;SDS_P2;PMS_P1;PMS_P2;Temp;Humidity;BMP_temperature;BMP_pressure;BME280_temperature;BME280_humidity;BME280_pressure;Samples;Min_cycle;Max_cycle;Signal;HPM_P1;HPM_P2
2022/11/17 00:02:22;;;;;;;6.55;1.17;;;10.00;99.90;;;;;;7355249;32;20198;-58
2022/11/17 00:06:24;;;;;;;4.45;1.45;;;10.10;99.90;;;;;;7353339;32;20099;-58
2022/11/17 00:10:25;;;;;;;5.05;1.40;;;10.10;99.90;;;;;;7352887;32;20232;-57
2022/11/17 00:14:35;;;;;;;5.25;1.10;;;10.00;99.90;;;;;;7357975;32;20102;-59
2022/11/17 00:22:57;;;;;;;7.03;1.40;;;10.00;99.90;;;;;;7362379;32;20360;-58
2022/11/17 00:27:01;;;;;;;4.25;1.20;;;10.00;99.90;;;;;;7349824;32;20474;-58
2022/11/17 00:35:23;;;;;;;3.80;1.10;;;10.00;99.90;;;;;;7346722;32;20095;-59
2022/11/17 00:39:25;;;;;;;5.82;1.30;;;10.00;99.90;;;;;;7354066;32;20199;-58
2022/11/17 00:43:27;;;;;;;5.40;1.10;;;10.00;99.90;;;;;;7352093;32;20155;-59
2022/11/17 00:47:29;;;;;;;4.82;1.00;;;10.00;99.90;;;;;;7334773;32;20521;-58
2022/11/17 00:51:31;;;;;;;6.35;1.33;;;10.10;99.90;;;;;;7350748;32;20170;-58
2022/11/17 00:55:33;;;;;;;2.62;0.82;;;10.00;99.90;;;;;;7333692;32;20135;-59
2022/11/17 00:59:35;;;;;;;3.58;0.98;;;10.00;99.90;;;;;;7352867;32;20098;-59
2022/11/17 01:03:36;;;;;;;2.85;1.20;;;9.90;99.90;;;;;;7356847;32;20225;-59
2022/11/17 01:07:38;;;;;;;4.35;1.08;;;9.90;99.90;;;;;;7343686;32;20617;-58
2022/11/17 01:11:41;;;;;;;3.30;0.98;;;9.90;99.90;;;;;;7350545;32;20103;-58
2022/11/17 01:15:43;;;;;;;3.83;0.90;;;9.90;99.90;;;;;;7351564;32;20294;-58
2022/11/17 01:19:44;;;;;;;3.55;0.93;;;9.90;99.90;;;;;;7343537;32;20131;-58
2022/11/17 01:23:47;;;;;;;7.12;1.50;;;9.90;99.90;;;;;;7348045;32;20367;-59
2022/11/17 01:27:49;;;;;;;3.58;1.05;;;9.90;99.90;;;;;;7350000;32;20138;-58
2022/11/17 01:31:51;;;;;;;5.93;1.00;;;9.90;99.90;;;;;;7346736;32;20542;-59
2022/11/17 01:35:53;;;;;;;3.30;1.00;;;9.90;99.90;;;;;;7349131;32;20292;-59
2022/11/17 01:39:54;;;;;;;6.15;1.30;;;9.80;99.90;;;;;;7355237;32;20100;-58
2022/11/17 01:43:58;;;;;;;3.72;1.10;;;9.80;99.90;;;;;;7353507;32;20103;-61
2022/11/17 01:48:03;;;;;;;3.25;1.05;;;9.90;99.90;;;;;;7347340;32;20171;-58
2022/11/17 01:52:08;;;;;;;3.12;1.02;;;9.80;99.90;;;;;;7355504;32;20413;-58
2022/11/17 01:56:18;;;;;;;7.00;1.37;;;9.80;99.90;;;;;;7353799;32;21255;-59
2022/11/17 02:00:20;;;;;;;4.47;0.90;;;9.80;99.90;;;;;;7355251;32;20176;-59
2022/11/17 02:04:28;;;;;;;3.72;1.00;;;9.80;99.90;;;;;;7353927;32;20495;-58
2022/11/17 02:08:32;;;;;;;3.40;1.00;;;9.90;99.90;;;;;;7351095;32;20142;-59
2022/11/17 02:12:35;;;;;;;4.37;1.10;;;9.90;99.90;;;;;;7341278;32;20575;-58
2022/11/17 02:16:36;;;;;;;5.05;1.00;;;9.90;99.90;;;;;;7345919;32;20160;-58
2022/11/17 02:20:57;;;;;;;6.68;1.20;;;9.90;99.90;;;;;;7357312;32;20178;-59
2022/11/17 02:25:11;;;;;;;3.58;1.02;;;9.90;99.90;;;;;;7354000;32;20159;-59
2022/11/17 02:29:38;;;;;;;3.55;1.10;;;9.90;99.90;;;;;;7354514;32;20134;-58
2022/11/17 02:34:04;;;;;;;3.22;1.00;;;9.90;99.90;;;;;;7346828;32;20107;-59
2022/11/17 02:38:18;;;;;;;4.43;1.23;;;9.90;99.90;;;;;;7354680;32;20111;-59
2022/11/17 02:47:01;;;;;;;2.58;0.90;;;9.90;99.90;;;;;;7343754;32;20113;-59
2022/11/17 02:51:05;;;;;;;4.32;1.35;;;9.90;99.90;;;;;;7351813;32;20166;-59
2022/11/17 02:55:10;;;;;;;2.10;0.90;;;9.90;99.90;;;;;;7349164;32;20132;-59
2022/11/17 02:59:14;;;;;;;4.45;1.30;;;9.90;99.90;;;;;;7352835;32;20103;-59
2022/11/17 03:03:19;;;;;;;7.18;1.10;;;9.90;99.90;;;;;;7336089;32;20179;-59
2022/11/17 03:07:34;;;;;;;3.53;0.88;;;9.90;99.90;;;;;;7343224;32;20141;-59
2022/11/17 03:11:58;;;;;;;2.40;1.10;;;9.90;99.90;;;;;;7345213;32;20134;-59
2022/11/17 03:16:26;;;;;;;5.40;1.20;;;9.90;99.90;;;;;;7350466;32;20436;-59
2022/11/17 03:20:34;;;;;;;3.28;0.95;;;9.80;99.90;;;;;;7351821;32;20135;-59
2022/11/17 03:24:43;;;;;;;3.47;1.10;;;9.80;99.90;;;;;;7349644;32;20185;-59
2022/11/17 03:28:45;;;;;;;3.42;1.00;;;9.80;99.90;;;;;;7344799;32;20210;-59
2022/11/17 03:32:52;;;;;;;3.12;0.90;;;9.80;99.90;;;;;;7346705;32;20115;-59
2022/11/17 03:37:04;;;;;;;;;;;9.80;99.90;;;;;;7345559;32;20116;-59
2022/11/17 03:41:09;;;;;;;2.42;1.00;;;9.80;99.90;;;;;;7337907;32;20141;-59
2022/11/17 03:45:20;;;;;;;3.95;1.02;;;9.90;99.90;;;;;;7343907;32;20141;-59
2022/11/17 03:50:09;;;;;;;3.17;0.80;;;9.80;99.90;;;;;;7345963;32;20262;-59
2022/11/17 03:54:13;;;;;;;1.48;0.75;;;9.80;99.90;;;;;;7310361;32;20195;-59
2022/11/17 03:58:18;;;;;;;5.43;1.00;;;9.90;99.90;;;;;;7312047;32;20141;-59
2022/11/17 04:02:21;;;;;;;3.65;1.00;;;9.80;99.90;;;;;;7350961;32;20190;-58
2022/11/17 04:06:23;;;;;;;2.00;0.90;;;9.80;99.90;;;;;;7345478;32;20341;-59
2022/11/17 04:10:25;;;;;;;3.75;0.80;;;9.80;99.90;;;;;;7353853;32;20119;-59
2022/11/17 04:18:48;;;;;;;1.48;0.90;;;9.70;99.90;;;;;;7347891;32;20137;-59
2022/11/17 04:23:05;;;;;;;2.67;1.10;;;9.70;99.90;;;;;;7354523;32;20207;-58
2022/11/17 04:31:29;;;;;;;2.10;0.90;;;9.70;99.90;;;;;;7351806;32;20171;-58
2022/11/17 04:35:31;;;;;;;4.15;0.85;;;9.70;99.90;;;;;;7349062;32;20171;-59
2022/11/17 04:39:36;;;;;;;3.25;0.75;;;9.60;99.90;;;;;;7359510;32;20245;-58
2022/11/17 04:43:38;;;;;;;4.22;0.82;;;9.70;99.90;;;;;;7352514;32;20172;-58
2022/11/17 04:47:39;;;;;;;3.50;0.70;;;9.70;99.90;;;;;;7337711;32;20168;-59
2022/11/17 04:51:41;;;;;;;2.65;0.93;;;9.70;99.90;;;;;;7347623;32;20190;-59
2022/11/17 04:55:43;;;;;;;4.80;0.75;;;9.60;99.90;;;;;;7354169;32;20261;-59
2022/11/17 04:59:45;;;;;;;4.97;0.95;;;9.70;99.90;;;;;;7349151;32;20520;-58
2022/11/17 05:03:52;;;;;;;2.58;0.88;;;9.60;99.90;;;;;;7349328;32;20120;-58
2022/11/17 05:07:54;;;;;;;3.20;0.80;;;9.60;99.90;;;;;;7360558;32;20107;-58
2022/11/17 05:20:37;;;;;;;4.97;1.10;;;9.70;99.90;;;;;;7356770;32;20130;-59
2022/11/17 05:24:38;;;;;;;3.62;0.85;;;9.90;99.90;;;;;;7357935;32;20176;-59
2022/11/17 05:28:40;;;;;;;3.33;0.93;;;9.90;99.90;;;;;;7347145;32;20511;-59
2022/11/17 05:32:42;;;;;;;3.22;0.95;;;9.80;99.90;;;;;;7341012;32;20180;-59
2022/11/17 05:36:44;;;;;;;4.28;1.23;;;9.80;99.90;;;;;;7350028;32;20139;-59
2022/11/17 05:40:46;;;;;;;5.97;0.80;;;9.70;99.90;;;;;;7354313;32;20129;-59
2022/11/17 05:44:48;;;;;;;4.65;0.70;;;9.70;99.90;;;;;;7353976;32;20178;-59
2022/11/17 05:48:50;;;;;;;3.37;1.12;;;9.70;99.90;;;;;;7356030;32;20214;-59
2022/11/17 05:52:52;;;;;;;4.07;0.98;;;9.70;99.90;;;;;;7353634;32;20154;-58
2022/11/17 05:57:04;;;;;;;3.30;1.40;;;9.70;99.90;;;;;;7351517;32;20198;-59
2022/11/17 06:01:08;;;;;;;4.53;1.05;;;9.70;99.90;;;;;;7352243;32;20138;-59
2022/11/17 06:05:09;;;;;;;5.43;1.10;;;9.70;99.90;;;;;;7336981;32;20189;-59
2022/11/17 06:09:18;;;;;;;2.92;1.00;;;9.70;99.90;;;;;;7343156;32;20158;-59
2022/11/17 06:13:24;;;;;;;4.03;1.10;;;9.70;99.90;;;;;;7354401;32;20183;-59
2022/11/17 06:17:40;;;;;;;5.28;1.40;;;9.80;99.90;;;;;;7353691;32;20157;-59
2022/11/17 06:21:42;;;;;;;5.18;1.15;;;9.80;99.90;;;;;;7351293;32;20103;-59
2022/11/17 06:26:07;;;;;;;3.85;1.00;;;9.80;99.90;;;;;;7349258;32;20201;-60
2022/11/17 06:30:09;;;;;;;4.57;1.10;;;9.90;99.90;;;;;;7346545;32;20112;-59
2022/11/17 06:34:11;;;;;;;5.93;1.37;;;9.80;99.90;;;;;;7344659;32;20137;-59
2022/11/17 06:38:13;;;;;;;6.28;2.35;;;9.80;99.90;;;;;;7343438;32;20682;-59
2022/11/17 06:42:15;;;;;;;4.95;1.10;;;9.90;99.90;;;;;;7350698;32;20115;-59
2022/11/17 06:46:18;;;;;;;5.97;1.30;;;9.90;99.90;;;;;;7355004;32;20180;-59
2022/11/17 06:50:19;;;;;;;5.62;0.90;;;9.80;99.90;;;;;;7353608;32;20118;-60
2022/11/17 06:54:21;;;;;;;2.92;0.98;;;9.80;99.90;;;;;;7359177;32;20604;-59
2022/11/17 06:58:23;;;;;;;5.50;0.90;;;9.90;99.90;;;;;;7350991;32;20267;-59
2022/11/17 07:02:24;;;;;;;3.72;1.10;;;9.90;99.90;;;;;;7348616;32;20118;-60
2022/11/17 07:06:26;;;;;;;4.70;1.20;;;9.80;99.90;;;;;;7354167;32;20238;-59
2022/11/17 07:10:29;;;;;;;4.25;1.02;;;9.90;99.90;;;;;;7353031;32;20107;-60
2022/11/17 07:14:30;;;;;;;3.55;1.02;;;9.90;99.90;;;;;;7347159;32;20705;-60
2022/11/17 07:18:33;;;;;;;3.97;1.00;;;9.90;99.90;;;;;;7345293;32;20266;-60
2022/11/17 07:22:36;;;;;;;5.18;1.10;;;10.00;99.90;;;;;;7353340;32;20218;-60
2022/11/17 07:26:38;;;;;;;2.67;1.20;;;10.00;99.90;;;;;;7346918;32;20221;-60
2022/11/17 07:30:39;;;;;;;8.43;1.73;;;10.00;99.90;;;;;;7350036;32;20107;-60
2022/11/17 07:34:41;;;;;;;5.50;1.30;;;9.90;99.90;;;;;;7354626;32;20137;-60
2022/11/17 07:38:43;;;;;;;6.25;1.35;;;10.00;99.90;;;;;;7354955;32;20111;-60
2022/11/17 07:42:48;;;;;;;6.62;1.45;;;10.00;99.90;;;;;;7357530;32;20194;-61
2022/11/17 07:46:50;;;;;;;4.47;1.27;;;10.00;99.90;;;;;;7361096;32;20159;-62
2022/11/17 07:50:52;;;;;;;5.80;1.30;;;10.00;99.90;;;;;;7363172;32;20482;-60
2022/11/17 07:54:53;;;;;;;2.78;0.70;;;10.00;99.90;;;;;;7354811;32;20565;-62
2022/11/17 07:58:55;;;;;;;2.65;0.90;;;10.00;99.90;;;;;;7345859;32;20479;-62
2022/11/17 08:03:02;;;;;;;3.85;0.70;;;10.00;99.90;;;;;;7354099;32;20174;-62
2022/11/17 08:07:04;;;;;;;;;;;9.90;99.90;;;;;;7357995;32;20155;-61
2022/11/17 08:11:08;;;;;;;3.78;0.50;;;9.80;99.90;;;;;;7347335;32;20018;-62
2022/11/17 08:15:10;;;;;;;4.55;0.77;;;9.80;99.90;;;;;;7350542;32;20500;-61
2022/11/17 08:19:13;;;;;;;1.58;0.62;;;9.80;99.90;;;;;;7369703;32;20129;-61
2022/11/17 08:23:14;;;;;;;2.92;0.80;;;9.80;99.90;;;;;;7357786;32;20115;-61
2022/11/17 08:27:16;;;;;;;2.30;0.80;;;9.90;99.90;;;;;;7346939;32;20708;-61
2022/11/17 08:31:18;;;;;;;1.85;0.60;;;9.90;99.90;;;;;;7355776;32;20433;-61
2022/11/17 08:35:22;;;;;;;4.00;0.85;;;9.90;99.90;;;;;;7354654;32;20515;-61
2022/11/17 08:39:24;;;;;;;3.28;0.90;;;9.90;99.90;;;;;;7353728;32;20528;-61
2022/11/17 08:43:26;;;;;;;4.68;0.80;;;9.90;99.90;;;;;;7352416;32;20133;-61
2022/11/17 08:47:28;;;;;;;8.07;0.70;;;9.90;99.90;;;;;;7350748;32;20462;-61
2022/11/17 08:51:30;;;;;;;1.83;0.60;;;9.90;99.90;;;;;;7344989;32;20135;-60
2022/11/17 08:55:36;;;;;;;5.03;0.98;;;9.90;99.90;;;;;;7346333;32;20152;-61
2022/11/17 08:59:42;;;;;;;1.70;0.80;;;9.90;99.90;;;;;;7350392;32;20520;-60
2022/11/17 09:03:45;;;;;;;4.80;1.05;;;9.90;99.90;;;;;;7341863;32;20209;-60
2022/11/17 09:07:47;;;;;;;3.22;0.77;;;10.00;99.90;;;;;;7351487;32;20950;-60
2022/11/17 09:11:49;;;;;;;6.85;1.08;;;10.00;99.90;;;;;;7355740;32;20206;-60
2022/11/17 09:15:51;;;;;;;3.10;1.00;;;10.10;99.90;;;;;;7350474;32;20184;-59
2022/11/17 09:19:53;;;;;;;3.33;1.00;;;10.10;99.90;;;;;;7351357;32;20111;-60
2022/11/17 09:23:54;;;;;;;5.40;1.00;;;10.20;99.90;;;;;;7357982;32;20186;-60
2022/11/17 09:27:56;;;;;;;3.90;1.27;;;10.20;99.90;;;;;;7350652;32;20151;-60
2022/11/17 09:31:58;;;;;;;4.43;1.25;;;10.20;99.90;;;;;;7354612;32;20096;-61
2022/11/17 09:36:00;;;;;;;2.10;0.75;;;10.20;99.90;;;;;;7358799;32;20435;-63
2022/11/17 09:40:01;;;;;;;5.07;1.05;;;10.30;99.90;;;;;;7353399;32;20607;-62
2022/11/17 09:44:17;;;;;;;2.75;0.52;;;10.30;99.90;;;;;;7341541;32;20107;-61
2022/11/17 09:48:52;;;;;;;5.32;0.77;;;10.40;99.90;;;;;;7354469;32;20591;-63
2022/11/17 09:53:05;;;;;;;4.65;1.00;;;10.40;99.90;;;;;;7354815;32;20967;-62
2022/11/17 09:57:38;;;;;;;4.82;0.70;;;10.50;99.90;;;;;;7359563;32;20114;-61
2022/11/17 10:01:40;;;;;;;4.75;1.00;;;10.60;99.90;;;;;;7355176;32;20131;-61
2022/11/17 10:05:43;;;;;;;2.12;0.70;;;10.70;99.90;;;;;;7353930;32;20159;-63
2022/11/17 10:09:47;;;;;;;2.90;0.65;;;10.80;99.90;;;;;;7356419;32;20235;-62
2022/11/17 10:13:49;;;;;;;2.17;0.60;;;10.90;99.90;;;;;;7347647;32;20121;-60
2022/11/17 10:17:51;;;;;;;3.47;0.50;;;11.00;99.90;;;;;;7353382;32;20127;-60
2022/11/17 10:22:02;;;;;;;2.92;0.52;;;11.00;99.90;;;;;;7360313;32;20556;-60
2022/11/17 10:26:10;;;;;;;2.62;0.57;;;11.00;99.90;;;;;;7354146;32;20205;-60
2022/11/17 10:30:25;;;;;;;1.70;0.60;;;11.00;99.90;;;;;;7353995;32;20099;-60
2022/11/17 10:34:33;;;;;;;2.30;0.45;;;11.00;99.90;;;;;;7347352;32;20123;-60
2022/11/17 10:38:51;;;;;;;2.83;0.60;;;11.00;99.90;;;;;;7352912;32;20475;-60
2022/11/17 10:42:57;;;;;;;4.12;0.50;;;11.10;99.90;;;;;;7353832;32;20241;-62
2022/11/17 10:47:02;;;;;;;3.05;0.52;;;11.10;99.90;;;;;;7352100;32;20190;-60
2022/11/17 10:51:15;;;;;;;3.90;0.50;;;11.20;99.90;;;;;;7357926;32;20640;-61
2022/11/17 10:55:20;;;;;;;0.77;0.40;;;11.20;99.90;;;;;;7353958;32;20241;-60
2022/11/17 10:59:31;;;;;;;2.55;0.68;;;11.30;99.90;;;;;;7350175;32;20167;-61
2022/11/17 11:03:33;;;;;;;1.37;0.47;;;11.30;99.90;;;;;;7350219;32;20467;-63
2022/11/17 11:07:37;;;;;;;1.85;0.65;;;11.40;99.90;;;;;;7345298;32;20180;-60
2022/11/17 11:11:48;;;;;;;4.28;0.68;;;11.50;99.90;;;;;;7348442;32;20167;-60
2022/11/17 11:15:52;;;;;;;2.47;0.60;;;11.50;99.90;;;;;;7352057;32;20126;-59
2022/11/17 11:19:55;;;;;;;2.90;0.52;;;11.60;99.90;;;;;;7347432;32;20564;-62
2022/11/17 11:44:31;;;;;;;2.65;0.43;;;11.90;99.90;;;;;;7337419;32;20167;-78
2022/11/17 11:48:38;;;;;;;1.37;0.40;;;11.70;99.90;;;;;;7335907;32;20100;-78
2022/11/17 11:52:44;;;;;;;;;;;11.60;99.90;;;;;;7335082;32;20128;-78
2022/11/17 11:56:47;;;;;;;2.33;0.50;;;11.60;99.90;;;;;;7320542;32;20465;-78
2022/11/17 12:00:53;;;;;;;1.92;0.65;;;11.60;99.90;;;;;;7346112;32;20509;-78
2022/11/17 12:05:15;;;;;;;1.52;0.55;;;11.60;99.90;;;;;;7338663;32;20124;-78
2022/11/17 12:09:39;;;;;;;1.55;0.65;;;11.70;99.90;;;;;;7336294;32;20106;-78
2022/11/17 12:13:42;;;;;;;4.82;0.35;;;11.80;99.90;;;;;;7339127;32;20132;-77
2022/11/17 12:18:01;;;;;;;2.35;0.40;;;11.90;99.90;;;;;;7341344;32;20184;-78
2022/11/17 12:22:03;;;;;;;2.85;0.57;;;11.90;99.90;;;;;;7323233;32;20524;-78
2022/11/17 12:26:06;;;;;;;2.45;0.40;;;11.90;99.90;;;;;;7307836;32;20112;-78
2022/11/17 12:30:30;;;;;;;0.60;0.30;;;11.90;99.90;;;;;;7337816;32;20101;-78
2022/11/17 12:34:36;;;;;;;2.28;0.40;;;11.90;99.90;;;;;;7328595;32;20164;-78
2022/11/17 12:38:39;;;;;;;0.50;0.20;;;11.80;99.90;;;;;;7318554;32;20160;-79
2022/11/17 12:43:13;;;;;;;4.05;0.50;;;11.70;99.90;;;;;;7348842;32;20210;-78
2022/11/17 12:47:24;;;;;;;2.08;0.50;;;11.70;99.90;;;;;;7329126;32;20227;-78
2022/11/17 12:51:36;;;;;;;2.37;0.40;;;11.70;99.90;;;;;;7340349;32;20138;-83
2022/11/17 12:55:50;;;;;;;4.45;0.68;;;11.50;99.90;;;;;;7337399;32;20302;-81
2022/11/17 13:00:04;;;;;;;2.97;0.50;;;11.40;99.90;;;;;;7346830;32;20095;-82
2022/11/17 13:04:20;;;;;;;4.85;0.65;;;11.50;99.90;;;;;;7358031;32;20289;-81
2022/11/17 13:08:23;;;;;;;2.50;0.70;;;11.50;99.90;;;;;;7340837;32;20147;-82
2022/11/17 13:12:26;;;;;;;2.85;0.50;;;11.50;99.90;;;;;;7343654;32;20262;-82
2022/11/17 13:16:28;;;;;;;1.67;0.30;;;11.60;99.90;;;;;;7346091;32;20194;-81
2022/11/17 13:20:30;;;;;;;2.58;0.50;;;11.60;99.90;;;;;;7340374;32;20161;-82
2022/11/17 13:24:36;;;;;;;1.65;0.40;;;11.70;99.90;;;;;;7329763;32;20188;-82
2022/11/17 13:28:38;;;;;;;3.05;0.55;;;11.70;99.90;;;;;;7348007;32;20245;-82
2022/11/17 13:32:42;;;;;;;1.02;0.30;;;11.80;99.90;;;;;;7328561;32;20217;-82
2022/11/17 13:37:00;;;;;;;1.58;0.50;;;11.90;99.90;;;;;;7348229;32;20161;-82
2022/11/17 13:41:04;;;;;;;1.83;0.57;;;11.90;99.90;;;;;;7338338;32;20257;-82
2022/11/17 13:45:06;;;;;;;2.83;0.47;;;12.00;99.90;;;;;;7324793;32;20104;-82
2022/11/17 13:49:37;;;;;;;2.00;0.40;;;12.00;99.90;;;;;;7330484;32;20127;-82
2022/11/17 13:53:42;;;;;;;2.35;0.40;;;12.00;99.90;;;;;;7324565;32;20147;-81
2022/11/17 13:58:05;;;;;;;2.40;0.43;;;11.90;99.90;;;;;;7343918;32;20112;-82
2022/11/17 14:02:19;;;;;;;3.90;1.15;;;11.90;99.90;;;;;;7348065;32;20111;-83
2022/11/17 14:06:21;;;;;;;2.60;0.40;;;11.80;99.90;;;;;;7348028;32;20629;-83
2022/11/17 14:10:30;;;;;;;3.28;0.40;;;11.80;99.90;;;;;;7331889;32;20103;-82
2022/11/17 14:14:42;;;;;;;1.98;0.50;;;11.70;99.90;;;;;;7340701;32;20849;-83
2022/11/17 14:19:19;;;;;;;2.10;0.60;;;11.60;99.90;;;;;;7331290;32;20261;-82
2022/11/17 14:23:21;;;;;;;2.03;0.50;;;11.70;99.90;;;;;;7307985;32;20563;-82
2022/11/17 14:27:30;;;;;;;3.22;0.62;;;11.60;99.90;;;;;;7338186;32;20182;-82
2022/11/17 14:31:32;;;;;;;2.67;0.90;;;11.60;99.90;;;;;;7331890;32;20188;-82
2022/11/17 14:35:35;;;;;;;3.35;0.77;;;11.70;99.90;;;;;;7342119;32;20118;-81
2022/11/17 14:39:37;;;;;;;5.05;0.60;;;11.70;99.90;;;;;;7320691;32;20219;-81
2022/11/17 14:43:39;;;;;;;1.85;0.60;;;11.80;99.90;;;;;;7329719;32;20588;-81
2022/11/17 14:47:42;;;;;;;4.03;0.80;;;11.70;99.90;;;;;;7317845;32;20126;-81
2022/11/17 14:51:48;;;;;;;5.53;0.80;;;11.70;99.90;;;;;;7337283;32;20100;-82
2022/11/17 14:55:50;;;;;;;1.67;0.57;;;11.60;99.90;;;;;;7333233;32;20569;-81
2022/11/17 14:59:52;;;;;;;4.20;0.90;;;11.60;99.90;;;;;;7309947;32;20202;-82
2022/11/17 15:03:56;;;;;;;4.78;0.98;;;11.50;99.90;;;;;;7332255;32;20103;-81
2022/11/17 15:07:59;;;;;;;2.05;0.50;;;11.50;99.90;;;;;;7327305;32;20128;-81
2022/11/17 15:12:01;;;;;;;4.18;0.52;;;11.60;99.90;;;;;;7341901;32;20520;-81
2022/11/17 15:16:04;;;;;;;3.05;0.60;;;11.50;99.90;;;;;;7339191;32;20190;-81
2022/11/17 15:20:07;;;;;;;3.33;0.90;;;11.40;99.90;;;;;;7340036;32;20563;-81
2022/11/17 15:24:09;;;;;;;2.92;0.80;;;11.30;99.90;;;;;;7328223;32;20613;-81
2022/11/17 15:28:11;;;;;;;3.45;0.80;;;11.20;99.90;;;;;;7340400;32;20191;-81
2022/11/17 15:32:22;;;;;;;3.87;0.80;;;11.20;99.90;;;;;;7342091;32;20134;-81
2022/11/17 15:36:24;;;;;;;2.62;0.90;;;11.10;99.90;;;;;;7361951;32;20106;-81
2022/11/17 15:40:26;;;;;;;6.37;1.15;;;11.10;99.90;;;;;;7340272;32;20067;-81
2022/11/17 15:44:28;;;;;;;5.20;1.10;;;11.10;99.90;;;;;;7352760;32;21094;-81
2022/11/17 15:48:31;;;;;;;7.12;1.20;;;11.00;99.90;;;;;;7344898;32;20655;-81
2022/11/17 15:52:33;;;;;;;3.75;1.30;;;10.90;99.90;;;;;;7337496;32;20507;-81
2022/11/17 15:56:55;;;;;;;6.00;1.50;;;10.80;99.90;;;;;;7340624;32;20155;-81
2022/11/17 16:01:47;;;;;;;3.03;0.62;;;10.90;99.90;;;;;;7328576;32;20507;-80
2022/11/17 16:05:49;;;;;;;3.53;0.88;;;10.90;99.90;;;;;;7307736;32;20157;-81
2022/11/17 16:09:51;;;;;;;3.65;0.90;;;10.90;99.90;;;;;;7328352;32;20145;-81
2022/11/17 16:13:55;;;;;;;4.50;1.20;;;10.90;99.90;;;;;;7332815;32;20108;-82
2022/11/17 16:17:57;;;;;;;4.35;1.25;;;11.00;99.90;;;;;;7353235;32;20121;-81
2022/11/17 16:21:59;;;;;;;3.65;1.05;;;11.10;99.90;;;;;;7337417;32;20209;-81
2022/11/17 16:26:01;;;;;;;4.25;0.80;;;11.10;99.90;;;;;;7339121;32;20816;-79
2022/11/17 16:30:03;;;;;;;3.92;1.08;;;11.20;99.90;;;;;;7338787;32;20160;-81
2022/11/17 16:34:17;;;;;;;3.83;0.90;;;11.20;99.90;;;;;;7348721;32;20096;-82
2022/11/17 16:38:19;;;;;;;7.50;1.10;;;11.40;99.90;;;;;;7340585;32;20099;-80
2022/11/17 16:42:22;;;;;;;3.62;1.15;;;11.30;99.90;;;;;;7347053;32;20578;-81
2022/11/17 16:46:27;;;;;;;7.22;1.50;;;11.50;99.90;;;;;;7346039;32;20117;-80
2022/11/17 16:50:30;;;;;;;8.07;1.60;;;11.30;99.90;;;;;;7337986;32;20508;-81
2022/11/17 16:54:32;;;;;;;5.62;1.67;;;11.20;99.90;;;;;;7333437;32;20167;-79
2022/11/17 16:58:34;;;;;;;5.45;1.60;;;11.10;99.90;;;;;;7346651;32;20168;-78
2022/11/17 17:02:36;;;;;;;6.50;1.70;;;11.10;99.90;;;;;;7321187;32;20156;-78
2022/11/17 17:06:41;;;;;;;5.57;1.10;;;11.10;99.90;;;;;;7324369;32;20131;-78
2022/11/17 17:10:43;;;;;;;5.87;1.75;;;11.00;99.90;;;;;;7320243;32;20141;-79
2022/11/17 17:14:45;;;;;;;3.62;1.05;;;10.90;99.90;;;;;;7306349;32;20169;-79
2022/11/17 17:18:47;;;;;;;4.82;1.25;;;10.90;99.90;;;;;;7316953;32;20112;-79
2022/11/17 17:22:49;;;;;;;6.07;1.10;;;10.70;99.90;;;;;;7326791;32;20222;-80
2022/11/17 17:26:51;;;;;;;5.12;1.10;;;10.60;99.90;;;;;;7326671;32;20270;-79
2022/11/17 17:30:54;;;;;;;5.87;1.20;;;10.60;99.90;;;;;;7332835;32;20198;-79
2022/11/17 17:34:56;;;;;;;3.47;1.20;;;10.40;99.90;;;;;;7339770;32;20108;-79
2022/11/17 17:39:03;;;;;;;5.28;1.23;;;10.30;99.90;;;;;;7333544;32;20128;-79
2022/11/17 17:43:05;;;;;;;5.62;2.47;;;10.20;99.90;;;;;;7342003;32;20422;-80
2022/11/17 17:47:07;;;;;;;5.53;0.98;;;10.10;99.90;;;;;;7308691;32;20570;-80
2022/11/17 17:51:18;;;;;;;4.15;1.02;;;10.00;99.90;;;;;;7312028;32;20188;-80
2022/11/17 17:55:21;;;;;;;2.83;0.77;;;10.10;99.90;;;;;;7313017;32;20687;-80
2022/11/17 17:59:23;;;;;;;4.97;1.05;;;10.00;99.90;;;;;;7310718;32;20100;-80
2022/11/17 18:03:25;;;;;;;4.45;1.00;;;10.00;99.90;;;;;;7326551;32;20145;-80
2022/11/17 18:07:30;;;;;;;4.37;1.12;;;10.00;99.90;;;;;;7345892;32;20164;-80
2022/11/17 18:11:34;;;;;;;7.10;1.12;;;10.00;99.90;;;;;;7328534;32;20814;-81
2022/11/17 18:15:39;;;;;;;4.32;1.00;;;9.90;99.90;;;;;;7337975;32;20134;-81
2022/11/17 18:19:41;;;;;;;6.30;2.08;;;9.90;99.90;;;;;;7336748;32;20243;-80
2022/11/17 18:23:44;;;;;;;4.37;0.90;;;9.80;99.90;;;;;;7316484;32;20179;-81
2022/11/17 18:27:46;;;;;;;5.65;1.15;;;9.80;99.90;;;;;;7327089;32;20223;-80
2022/11/17 18:31:49;;;;;;;7.07;1.20;;;9.70;99.90;;;;;;7340830;32;20099;-80
2022/11/17 18:35:51;;;;;;;5.75;1.40;;;9.70;99.90;;;;;;7328400;32;20240;-80
2022/11/17 18:39:53;;;;;;;7.00;1.10;;;9.60;99.90;;;;;;7342163;32;20110;-80
2022/11/17 18:43:56;;;;;;;5.62;1.35;;;9.50;99.90;;;;;;7341025;32;20146;-80
2022/11/17 18:47:58;;;;;;;6.57;1.30;;;9.50;99.90;;;;;;7335527;32;20099;-80
2022/11/17 18:52:00;;;;;;;4.12;1.17;;;9.40;99.90;;;;;;7321678;32;20272;-80
2022/11/17 18:56:08;;;;;;;5.43;1.60;;;9.40;99.90;;;;;;7335313;32;20151;-80
2022/11/17 19:00:11;;;;;;;7.78;1.83;;;9.40;99.90;;;;;;7335986;32;20254;-80
2022/11/17 19:04:14;;;;;;;5.95;1.98;;;9.40;99.90;;;;;;7334643;32;20124;-81
2022/11/17 19:08:17;;;;;;;5.25;1.50;;;9.50;99.90;;;;;;7328973;32;20104;-80
2022/11/17 19:12:22;;;;;;;8.05;1.90;;;9.50;99.90;;;;;;7334477;32;20163;-80
2022/11/17 19:16:29;;;;;;;6.12;1.70;;;9.60;99.90;;;;;;7312889;32;20124;-80
2022/11/17 19:20:31;;;;;;;5.35;1.42;;;9.60;99.90;;;;;;7302971;32;20644;-80
2022/11/17 19:24:33;;;;;;;5.97;1.58;;;9.50;99.90;;;;;;7337650;32;20159;-80
2022/11/17 19:28:45;;;;;;;3.22;1.30;;;9.50;99.90;;;;;;7316276;32;20107;-81
2022/11/17 19:32:53;;;;;;;3.50;1.40;;;9.40;99.90;;;;;;7325263;32;20111;-81
2022/11/17 19:36:58;;;;;;;6.82;1.70;;;9.30;99.90;;;;;;7324655;32;20203;-81
2022/11/17 19:45:57;;;;;;;5.15;1.55;;;9.20;99.90;;;;;;7329102;32;20092;-81
2022/11/17 19:49:59;;;;;;;4.68;2.08;;;9.10;99.90;;;;;;7346941;32;20088;-81
2022/11/17 19:54:07;;;;;;;7.43;2.17;;;9.00;99.90;;;;;;7320199;32;20191;-81
2022/11/17 19:58:10;;;;;;;6.78;1.98;;;9.10;99.90;;;;;;7342260;32;20132;-81
2022/11/17 20:02:13;;;;;;;5.65;2.30;;;9.10;99.90;;;;;;7319457;32;20107;-81
2022/11/17 20:06:18;;;;;;;7.57;2.42;;;9.00;99.90;;;;;;7327731;32;20509;-81
2022/11/17 20:10:21;;;;;;;9.65;2.97;;;9.10;99.90;;;;;;7324002;32;20204;-80
2022/11/17 20:14:27;;;;;;;8.27;2.33;;;9.00;99.90;;;;;;7326208;32;20137;-79
2022/11/17 20:18:30;;;;;;;6.22;1.90;;;9.00;99.90;;;;;;7326824;32;20182;-81
2022/11/17 20:22:33;;;;;;;6.15;1.98;;;8.90;99.90;;;;;;7338916;32;20475;-81
2022/11/17 20:26:39;;;;;;;5.10;1.65;;;8.80;99.90;;;;;;7338679;32;20168;-81
2022/11/17 20:30:41;;;;;;;4.25;2.00;;;8.80;99.90;;;;;;7339527;32;20619;-80
2022/11/17 20:34:43;;;;;;;7.47;1.95;;;8.80;99.90;;;;;;7326624;32;20104;-80
2022/11/17 20:38:50;;;;;;;7.37;2.35;;;8.80;99.90;;;;;;7350226;32;20155;-80
2022/11/17 20:42:53;;;;;;;5.85;2.10;;;8.70;99.90;;;;;;7322402;32;20156;-82
2022/11/17 20:46:55;;;;;;;5.30;1.92;;;8.70;99.90;;;;;;7319752;32;20202;-80
2022/11/17 20:51:06;;;;;;;5.30;1.87;;;8.70;99.90;;;;;;7340074;32;20268;-80
2022/11/17 20:55:13;;;;;;;6.30;2.22;;;8.70;99.90;;;;;;7340793;32;20170;-80
2022/11/17 20:59:15;;;;;;;7.28;2.10;;;8.70;99.90;;;;;;7338520;32;20100;-81
2022/11/17 21:03:22;;;;;;;5.05;1.75;;;8.60;99.90;;;;;;7328941;32;20177;-80
2022/11/17 21:07:28;;;;;;;4.70;1.80;;;8.60;99.90;;;;;;7341174;32;20645;-81
2022/11/17 21:16:09;;;;;;;7.40;1.98;;;8.50;99.90;;;;;;7316401;32;20269;-79
2022/11/17 21:20:11;;;;;;;6.68;1.90;;;8.40;99.90;;;;;;7310076;32;20103;-80
2022/11/17 21:24:13;;;;;;;5.72;1.80;;;8.30;99.90;;;;;;7342395;32;20164;-80
2022/11/17 21:28:15;;;;;;;4.18;1.80;;;8.20;99.90;;;;;;7313340;32;20095;-80
2022/11/17 21:32:17;;;;;;;4.45;1.90;;;8.20;99.90;;;;;;7328316;32;20210;-80
2022/11/17 21:36:20;;;;;;;6.97;2.53;;;8.10;99.90;;;;;;7341987;32;20096;-80
2022/11/17 21:40:23;;;;;;;7.72;2.33;;;8.00;99.90;;;;;;7343866;32;20160;-80
2022/11/17 21:44:25;;;;;;;4.65;1.83;;;8.00;99.90;;;;;;7334312;32;20156;-80
2022/11/17 21:48:27;;;;;;;4.20;1.90;;;8.00;99.90;;;;;;7339167;32;20136;-80
2022/11/17 21:52:29;;;;;;;6.25;1.90;;;8.00;99.90;;;;;;7323857;32;20201;-80
2022/11/17 21:56:32;;;;;;;6.65;2.17;;;8.00;99.90;;;;;;7327409;32;20244;-80
2022/11/17 22:00:34;;;;;;;6.50;2.03;;;8.00;99.90;;;;;;7333464;32;20130;-81
2022/11/17 22:04:37;;;;;;;4.53;1.90;;;8.00;99.90;;;;;;7325154;32;20245;-81
2022/11/17 22:08:41;;;;;;;4.10;1.77;;;8.00;99.90;;;;;;7336454;32;20171;-81
2022/11/17 22:12:43;;;;;;;5.72;1.92;;;8.00;99.90;;;;;;7342134;32;20195;-80
2022/11/17 22:16:48;;;;;;;9.10;2.28;;;7.90;99.90;;;;;;7328503;32;20175;-80
2022/11/17 22:20:52;;;;;;;7.68;2.75;;;8.00;99.90;;;;;;7338655;32;20566;-80
2022/11/17 22:24:55;;;;;;;8.50;2.65;;;8.00;99.90;;;;;;7347104;32;20099;-81
2022/11/17 22:28:58;;;;;;;6.60;2.12;;;7.90;99.90;;;;;;7337417;32;20156;-80